Time;durP1;ratioP1;P1;durP2;ratioP2;P2;SDS_P1;SDS_P2;PMS_P1;PMS_P2;Temp;Humidity;BMP_temperature;BMP_pressure;BME280_temperature;BME280_humidity;BME280_pressure;Samples;Min_cycle;Max_cycle;Signal;HPM_P1;HPM_P2
2023/05/09 00:01:11;;;;;;;5.68;5.07;;;;;;;;;;5027562;28;20045;-65
2023/05/09 00:03:37;;;;;;;5.38;4.65;;;;;;;;;;5027703;28;20589;-66
2023/05/09 00:06:04;;;;;;;5.97;4.80;;;;;;;;;;5044866;28;20033;-65
2023/05/09 00:08:30;;;;;;;6.55;5.80;;;;;;;;;;5045807;28;20072;-65
2023/05/09 00:10:56;;;;;;;7.22;6.28;;;;;;;;;;5027367;28;20045;-65
2023/05/09 00:13:23;;;;;;;7.55;5.90;;;;;;;;;;5045487;28;20044;-65
2023/05/09 00:15:49;;;;;;;6.10;4.72;;;;;;;;;;5025313;28;20131;-65
2023/05/09 00:18:16;;;;;;;5.78;4.90;;;;;;;;;;5045095;28;20039;-65
2023/05/09 00:20:43;;;;;;;7.20;5.38;;;;;;;;;;5044804;28;20045;-65
2023/05/09 00:23:09;;;;;;;7.75;5.60;;;;;;;;;;5027136;28;20484;-65
2023/05/09 00:25:35;;;;;;;10.02;7.35;;;;;;;;;;5026795;28;20053;-65
2023/05/09 00:28:01;;;;;;;9.50;6.65;;;;;;;;;;5026103;28;20139;-65
2023/05/09 00:30:27;;;;;;;5.55;4.88;;;;;;;;;;5044697;28;20533;-65
2023/05/09 00:32:53;;;;;;;8.02;6.45;;;;;;;;;;5025630;28;20052;-65
2023/05/09 00:35:19;;;;;;;12.07;7.55;;;;;;;;;;5027575;28;20037;-65
2023/05/09 00:37:45;;;;;;;8.20;6.25;;;;;;;;;;5044450;28;20041;-65
2023/05/09 00:40:11;;;;;;;6.30;4.75;;;;;;;;;;5044829;28;20517;-65
2023/05/09 00:42:37;;;;;;;4.90;4.38;;;;;;;;;;5044831;28;20079;-65
2023/05/09 00:45:04;;;;;;;4.63;3.75;;;;;;;;;;5026615;28;20056;-65
2023/05/09 00:47:30;;;;;;;4.53;3.67;;;;;;;;;;5043989;28;20123;-65
2023/05/09 00:49:56;;;;;;;4.35;3.80;;;;;;;;;;5044397;28;20080;-65
2023/05/09 00:52:24;;;;;;;7.50;5.53;;;;;;;;;;5026964;28;20476;-65
2023/05/09 00:54:54;;;;;;;10.77;7.57;;;;;;;;;;5025742;28;20541;-65
2023/05/09 00:57:21;;;;;;;9.45;5.95;;;;;;;;;;5042356;28;20410;-65
2023/05/09 00:59:47;;;;;;;6.63;5.20;;;;;;;;;;5043697;28;20033;-65
2023/05/09 01:02:14;;;;;;;5.88;5.03;;;;;;;;;;5042677;28;20391;-65
2023/05/09 01:04:40;;;;;;;7.10;5.68;;;;;;;;;;5043576;28;20033;-65
2023/05/09 01:07:11;;;;;;;9.55;6.80;;;;;;;;;;5025564;28;20041;-65
2023/05/09 01:09:44;;;;;;;7.60;5.70;;;;;;;;;;5023252;28;20107;-65
2023/05/09 01:12:14;;;;;;;6.75;4.65;;;;;;;;;;5044639;28;20032;-65
2023/05/09 01:14:54;;;;;;;4.82;4.05;;;;;;;;;;5025663;28;20052;-65
2023/05/09 01:17:20;;;;;;;3.88;3.25;;;;;;;;;;5044874;28;20084;-65
2023/05/09 01:19:58;;;;;;;3.35;2.78;;;;;;;;;;5043895;28;20394;-65
2023/05/09 01:22:28;;;;;;;5.55;4.68;;;;;;;;;;5043710;28;20922;-65
2023/05/09 01:25:06;;;;;;;7.85;6.13;;;;;;;;;;5045452;28;20167;-65
2023/05/09 01:27:35;;;;;;;6.72;5.40;;;;;;;;;;5041851;28;20045;-65
2023/05/09 01:30:02;;;;;;;6.22;5.63;;;;;;;;;;5042825;28;20040;-65
2023/05/09 01:32:30;;;;;;;5.63;5.13;;;;;;;;;;5044099;28;20060;-65
2023/05/09 01:34:58;;;;;;;4.40;3.72;;;;;;;;;;5043461;28;20120;-65
2023/05/09 01:37:35;;;;;;;3.90;3.50;;;;;;;;;;5022068;28;20130;-65
2023/05/09 01:40:09;;;;;;;3.90;3.50;;;;;;;;;;5025309;28;20057;-65
2023/05/09 01:43:02;;;;;;;3.90;3.17;;;;;;;;;;5024900;28;20072;-65
2023/05/09 01:45:28;;;;;;;3.70;3.30;;;;;;;;;;5039264;28;20530;-65
2023/05/09 01:47:55;;;;;;;3.30;2.85;;;;;;;;;;5044180;28;20048;-65
2023/05/09 01:50:22;;;;;;;3.38;3.08;;;;;;;;;;5043367;28;20045;-65
2023/05/09 01:52:48;;;;;;;2.88;2.55;;;;;;;;;;5043039;28;20048;-65
2023/05/09 01:55:16;;;;;;;3.17;2.67;;;;;;;;;;5043782;28;20041;-65
2023/05/09 01:57:43;;;;;;;4.03;2.65;;;;;;;;;;5025346;28;20056;-65
2023/05/09 02:00:11;;;;;;;2.72;2.53;;;;;;;;;;5043345;28;20091;-65
2023/05/09 02:02:38;;;;;;;2.97;2.38;;;;;;;;;;5042155;28;20083;-65
2023/05/09 02:05:04;;;;;;;3.55;2.65;;;;;;;;;;5042640;28;20041;-65
2023/05/09 02:07:30;;;;;;;2.85;2.65;;;;;;;;;;5043465;28;20116;-65
2023/05/09 02:09:57;;;;;;;3.20;2.90;;;;;;;;;;5043032;28;20477;-65
2023/05/09 02:12:24;;;;;;;2.75;2.35;;;;;;;;;;5025129;28;20396;-65
2023/05/09 02:14:50;;;;;;;2.60;2.10;;;;;;;;;;5043094;28;20127;-65
2023/05/09 02:17:16;;;;;;;2.20;2.00;;;;;;;;;;5043888;28;20033;-65
2023/05/09 02:19:43;;;;;;;2.60;2.40;;;;;;;;;;5024960;28;20175;-65
2023/05/09 02:22:10;;;;;;;2.92;2.58;;;;;;;;;;5040474;28;20395;-65
2023/05/09 02:24:36;;;;;;;3.33;2.70;;;;;;;;;;5042940;28;20247;-65
2023/05/09 02:27:03;;;;;;;3.50;2.80;;;;;;;;;;5024470;28;20404;-65
2023/05/09 02:29:38;;;;;;;3.67;2.90;;;;;;;;;;5043445;28;20033;-65
2023/05/09 02:32:07;;;;;;;5.78;3.63;;;;;;;;;;5042044;28;20826;-65
2023/05/09 02:34:33;;;;;;;4.15;3.15;;;;;;;;;;5025333;28;20056;-65
2023/05/09 02:36:59;;;;;;;4.38;3.13;;;;;;;;;;5042525;28;20053;-65
2023/05/09 02:39:25;;;;;;;2.45;2.25;;;;;;;;;;5042703;28;20123;-65
2023/05/09 02:41:51;;;;;;;3.17;2.72;;;;;;;;;;5025287;28;20554;-65
2023/05/09 02:44:17;;;;;;;2.50;2.30;;;;;;;;;;5043646;28;20045;-65
2023/05/09 02:46:43;;;;;;;2.90;2.65;;;;;;;;;;5042423;28;20084;-65
2023/05/09 02:49:09;;;;;;;2.92;2.63;;;;;;;;;;5024762;28;20048;-65
2023/05/09 02:51:35;;;;;;;2.85;2.60;;;;;;;;;;5026751;28;20053;-65
2023/05/09 02:54:01;;;;;;;3.92;2.97;;;;;;;;;;5046009;28;20047;-65
2023/05/09 02:56:27;;;;;;;3.63;2.65;;;;;;;;;;5029046;28;20524;-65
2023/05/09 02:58:53;;;;;;;3.40;2.45;;;;;;;;;;5029810;28;20033;-65
2023/05/09 03:01:19;;;;;;;2.95;2.50;;;;;;;;;;5028978;28;20110;-65
2023/05/09 03:03:45;;;;;;;2.70;2.50;;;;;;;;;;5028221;28;20395;-65
2023/05/09 03:06:13;;;;;;;2.65;2.45;;;;;;;;;;5047384;28;20041;-65
2023/05/09 03:08:39;;;;;;;3.03;2.40;;;;;;;;;;5027870;28;20107;-65
2023/05/09 03:11:05;;;;;;;4.18;2.97;;;;;;;;;;5046066;28;20056;-65
2023/05/09 03:13:31;;;;;;;2.75;2.55;;;;;;;;;;5046559;28;20036;-65
2023/05/09 03:15:57;;;;;;;3.58;3.00;;;;;;;;;;5045570;28;20138;-65
2023/05/09 03:18:23;;;;;;;2.10;1.90;;;;;;;;;;5046690;28;20570;-65
2023/05/09 03:20:49;;;;;;;3.33;2.90;;;;;;;;;;5046180;28;20040;-65
2023/05/09 03:23:15;;;;;;;2.80;2.50;;;;;;;;;;5027970;28;20130;-65
2023/05/09 03:25:41;;;;;;;2.50;2.30;;;;;;;;;;5046509;28;20467;-65
2023/05/09 03:28:07;;;;;;;2.67;2.47;;;;;;;;;;5027484;28;20052;-65
2023/05/09 03:30:33;;;;;;;2.20;2.00;;;;;;;;;;5046030;28;20498;-66
2023/05/09 03:32:59;;;;;;;2.78;2.47;;;;;;;;;;5027961;28;20056;-65
2023/05/09 03:35:25;;;;;;;2.67;1.98;;;;;;;;;;5040912;28;20564;-65
2023/05/09 03:37:51;;;;;;;2.65;2.20;;;;;;;;;;5027889;28;20045;-65
2023/05/09 03:40:17;;;;;;;2.53;2.17;;;;;;;;;;5046467;28;20041;-65
2023/05/09 03:42:43;;;;;;;2.97;2.78;;;;;;;;;;5045402;28;20380;-65
2023/05/09 03:45:09;;;;;;;4.22;3.72;;;;;;;;;;5045477;28;20044;-65
2023/05/09 03:47:35;;;;;;;5.45;4.47;;;;;;;;;;5046742;28;20052;-65
2023/05/09 03:50:01;;;;;;;5.25;4.05;;;;;;;;;;5044488;28;20503;-65
2023/05/09 03:52:27;;;;;;;4.55;3.90;;;;;;;;;;5045747;28;20061;-65
2023/05/09 03:54:53;;;;;;;4.55;3.55;;;;;;;;;;5044844;28;20048;-65
2023/05/09 03:57:19;;;;;;;3.30;3.00;;;;;;;;;;5045644;28;20741;-66
2023/05/09 03:59:45;;;;;;;3.40;3.10;;;;;;;;;;5045014;28;20052;-65
2023/05/09 04:02:11;;;;;;;2.90;2.70;;;;;;;;;;5045885;28;20048;-65
2023/05/09 04:04:37;;;;;;;3.20;2.67;;;;;;;;;;5044092;28;20388;-65
2023/05/09 04:07:03;;;;;;;3.03;2.72;;;;;;;;;;5045169;28;20041;-65
2023/05/09 04:09:29;;;;;;;3.13;2.67;;;;;;;;;;5027739;28;20055;-65
2023/05/09 04:11:55;;;;;;;3.38;3.08;;;;;;;;;;5025718;28;20132;-65
2023/05/09 04:14:21;;;;;;;3.78;3.38;;;;;;;;;;5045682;28;20131;-65
2023/05/09 04:16:47;;;;;;;2.63;2.42;;;;;;;;;;5026981;28;20079;-65
2023/05/09 04:19:13;;;;;;;2.17;2.03;;;;;;;;;;5044759;28;20072;-65
2023/05/09 04:21:39;;;;;;;2.25;2.10;;;;;;;;;;5045341;28;20045;-65
2023/05/09 04:24:06;;;;;;;3.33;3.03;;;;;;;;;;5046291;28;20113;-65
2023/05/09 04:26:34;;;;;;;2.90;2.67;;;;;;;;;;5045027;28;20052;-65
2023/05/09 04:29:00;;;;;;;4.30;3.90;;;;;;;;;;5025311;28;20119;-65
2023/05/09 04:31:26;;;;;;;4.72;4.22;;;;;;;;;;5026776;28;20048;-66
2023/05/09 04:33:52;;;;;;;6.32;5.38;;;;;;;;;;5026843;28;20060;-65
2023/05/09 04:36:18;;;;;;;5.50;4.95;;;;;;;;;;5045387;28;20111;-65
2023/05/09 04:38:44;;;;;;;4.75;4.15;;;;;;;;;;5043198;28;20500;-65
2023/05/09 04:41:10;;;;;;;4.35;3.95;;;;;;;;;;5027155;28;20061;-65
2023/05/09 04:43:36;;;;;;;5.30;3.92;;;;;;;;;;5044468;28;20418;-65
2023/05/09 04:46:02;;;;;;;4.60;3.90;;;;;;;;;;5043015;28;20055;-65
2023/05/09 04:48:28;;;;;;;4.30;3.75;;;;;;;;;;5044621;28;20202;-65
2023/05/09 04:50:54;;;;;;;5.63;4.68;;;;;;;;;;5026143;28;20049;-65
2023/05/09 04:53:20;;;;;;;5.72;4.32;;;;;;;;;;5026515;28;20103;-65
2023/05/09 04:55:46;;;;;;;5.82;5.00;;;;;;;;;;5025779;28;20404;-65
2023/05/09 04:58:12;;;;;;;6.55;5.22;;;;;;;;;;5044820;28;20090;-65
2023/05/09 05:00:38;;;;;;;7.05;5.47;;;;;;;;;;5043676;28;20048;-65
2023/05/09 05:03:04;;;;;;;7.97;6.13;;;;;;;;;;5025814;28;20842;-65
2023/05/09 05:05:30;;;;;;;7.80;5.68;;;;;;;;;;5026342;28;20041;-65
2023/05/09 05:07:56;;;;;;;6.00;5.40;;;;;;;;;;5043240;28;20044;-65
2023/05/09 05:10:22;;;;;;;8.05;6.05;;;;;;;;;;5025860;28;20052;-65
2023/05/09 05:12:48;;;;;;;7.82;6.03;;;;;;;;;;5026078;28;20048;-65
2023/05/09 05:15:14;;;;;;;5.70;4.75;;;;;;;;;;5043252;28;20672;-65
2023/05/09 05:17:40;;;;;;;5.95;5.35;;;;;;;;;;5044296;28;20129;-65
2023/05/09 05:20:09;;;;;;;13.52;10.48;;;;;;;;;;5043846;28;20603;-65
2023/05/09 05:22:35;;;;;;;13.07;10.70;;;;;;;;;;5040293;28;20456;-65
2023/05/09 05:25:03;;;;;;;18.92;13.48;;;;;;;;;;5025411;28;20052;-65
2023/05/09 05:27:29;;;;;;;19.98;14.38;;;;;;;;;;5044017;28;20812;-65
2023/05/09 05:29:55;;;;;;;23.58;17.30;;;;;;;;;;5025120;28;20048;-65
2023/05/09 05:32:21;;;;;;;23.30;15.65;;;;;;;;;;5043223;28;20751;-65
2023/05/09 05:34:47;;;;;;;22.65;16.08;;;;;;;;;;5043062;28;20044;-65
2023/05/09 05:37:13;;;;;;;20.27;16.67;;;;;;;;;;5044149;28;20065;-65
2023/05/09 05:39:39;;;;;;;22.48;16.58;;;;;;;;;;5043933;28;20091;-65
2023/05/09 05:42:05;;;;;;;19.20;14.27;;;;;;;;;;5042854;28;20064;-65
2023/05/09 05:44:31;;;;;;;19.02;14.65;;;;;;;;;;5043683;28;20044;-65
2023/05/09 05:46:57;;;;;;;19.33;14.68;;;;;;;;;;5042245;28;20637;-65
2023/05/09 05:49:23;;;;;;;14.50;11.80;;;;;;;;;;5025192;28;20044;-65
2023/05/09 05:51:50;;;;;;;14.98;12.48;;;;;;;;;;5043090;28;20041;-65
2023/05/09 05:54:16;;;;;;;14.43;11.82;;;;;;;;;;5043667;28;20084;-65
2023/05/09 05:56:42;;;;;;;18.63;13.98;;;;;;;;;;5043132;28;20056;-65
2023/05/09 05:59:08;;;;;;;13.68;11.30;;;;;;;;;;5042167;28;20206;-65
2023/05/09 06:01:34;;;;;;;14.30;10.77;;;;;;;;;;5044937;28;20547;-65
2023/05/09 06:04:00;;;;;;;10.65;8.70;;;;;;;;;;5042298;28;20053;-65
2023/05/09 06:06:26;;;;;;;10.73;8.75;;;;;;;;;;5043489;28;20045;-65
2023/05/09 06:08:53;;;;;;;15.57;11.18;;;;;;;;;;5042893;28;20087;-65
2023/05/09 06:11:20;;;;;;;16.90;13.25;;;;;;;;;;5024883;28;20045;-65
2023/05/09 06:13:46;;;;;;;18.95;13.95;;;;;;;;;;5026575;28;20132;-65
2023/05/09 06:16:12;;;;;;;24.73;16.85;;;;;;;;;;5042425;28;20123;-65
2023/05/09 06:18:39;;;;;;;21.85;15.68;;;;;;;;;;5026663;28;20044;-65
2023/05/09 06:21:05;;;;;;;15.75;12.75;;;;;;;;;;5032342;28;20404;-65
2023/05/09 06:23:31;;;;;;;18.02;15.23;;;;;;;;;;5043687;28;20044;-65
2023/05/09 06:25:57;;;;;;;22.35;16.92;;;;;;;;;;5043015;28;20049;-65
2023/05/09 06:28:23;;;;;;;25.55;19.42;;;;;;;;;;5031656;28;20128;-65
2023/05/09 06:30:49;;;;;;;28.50;20.48;;;;;;;;;;5043174;28;20393;-65
2023/05/09 06:33:16;;;;;;;28.60;21.45;;;;;;;;;;5029633;28;20383;-65
2023/05/09 06:35:41;;;;;;;24.38;19.48;;;;;;;;;;5047904;28;20304;-65
2023/05/09 06:38:07;;;;;;;22.83;17.63;;;;;;;;;;5028159;28;20041;-65
2023/05/09 06:40:33;;;;;;;27.52;19.33;;;;;;;;;;5047808;28;20077;-65
2023/05/09 06:42:59;;;;;;;21.17;16.80;;;;;;;;;;5046759;28;20045;-65
2023/05/09 06:45:26;;;;;;;17.27;14.15;;;;;;;;;;5046789;28;20537;-65
2023/05/09 06:47:52;;;;;;;24.58;19.83;;;;;;;;;;5047258;28;20107;-65
2023/05/09 06:50:18;;;;;;;18.23;16.10;;;;;;;;;;5029747;28;20037;-65
2023/05/09 06:52:44;;;;;;;24.77;18.98;;;;;;;;;;5046924;28;20051;-65
2023/05/09 06:55:10;;;;;;;23.95;18.33;;;;;;;;;;5047259;28;20116;-65
2023/05/09 06:57:36;;;;;;;17.75;14.75;;;;;;;;;;5029814;28;20037;-65
2023/05/09 07:00:03;;;;;;;16.88;13.82;;;;;;;;;;5048006;28;20041;-65
2023/05/09 07:02:29;;;;;;;16.98;12.95;;;;;;;;;;5026625;28;20060;-65
2023/05/09 07:04:55;;;;;;;15.15;13.50;;;;;;;;;;5046562;28;20119;-65
2023/05/09 07:07:21;;;;;;;16.00;13.07;;;;;;;;;;5033035;28;20571;-65
2023/05/09 07:09:47;;;;;;;12.35;10.73;;;;;;;;;;5047072;28;20063;-65
2023/05/09 07:12:14;;;;;;;12.60;10.70;;;;;;;;;;5047197;28;21618;-65
2023/05/09 07:14:40;;;;;;;13.60;11.77;;;;;;;;;;5046427;28;20045;-65
2023/05/09 07:17:07;;;;;;;20.67;14.52;;;;;;;;;;5046683;28;20475;-65
2023/05/09 07:19:33;;;;;;;20.50;15.98;;;;;;;;;;5046908;28;20053;-65
2023/05/09 07:22:00;;;;;;;21.33;15.50;;;;;;;;;;5028244;28;20044;-65
2023/05/09 07:24:26;;;;;;;14.23;12.73;;;;;;;;;;5035425;28;20045;-65
2023/05/09 07:26:52;;;;;;;16.73;13.98;;;;;;;;;;5047092;28;20479;-67
2023/05/09 07:29:19;;;;;;;16.13;12.75;;;;;;;;;;5029015;28;20515;-69
2023/05/09 07:31:45;;;;;;;14.70;12.27;;;;;;;;;;5047422;28;20052;-65
2023/05/09 07:34:11;;;;;;;18.08;13.82;;;;;;;;;;5028378;28;20052;-66
2023/05/09 07:36:37;;;;;;;16.92;14.40;;;;;;;;;;5046666;28;20114;-65
2023/05/09 07:39:03;;;;;;;15.43;12.38;;;;;;;;;;5045640;28;20252;-64
2023/05/09 07:41:30;;;;;;;17.13;13.50;;;;;;;;;;5046129;28;20097;-64
2023/05/09 07:43:56;;;;;;;20.60;16.83;;;;;;;;;;5045713;28;20045;-64
2023/05/09 07:46:22;;;;;;;22.83;18.25;;;;;;;;;;5051118;28;20053;-64
2023/05/09 07:48:48;;;;;;;20.65;16.73;;;;;;;;;;5031496;28;20073;-64
2023/05/09 07:51:14;;;;;;;17.58;14.57;;;;;;;;;;5046127;28;21623;-64
2023/05/09 07:53:40;;;;;;;21.08;14.90;;;;;;;;;;5028707;28;20047;-65
2023/05/09 07:56:06;;;;;;;24.95;18.17;;;;;;;;;;5028044;28;20057;-64
2023/05/09 07:58:32;;;;;;;23.45;17.20;;;;;;;;;;5046350;28;20543;-65
2023/05/09 08:00:58;;;;;;;16.88;13.82;;;;;;;;;;5047259;28;20055;-64
2023/05/09 08:03:24;;;;;;;20.13;15.48;;;;;;;;;;5045543;28;20107;-64
2023/05/09 08:05:55;;;;;;;21.30;15.93;;;;;;;;;;5046483;28;20045;-64
2023/05/09 08:08:21;;;;;;;28.35;21.20;;;;;;;;;;5046962;28;20091;-64
2023/05/09 08:10:47;;;;;;;22.90;19.73;;;;;;;;;;5027614;28;20053;-64
2023/05/09 08:13:13;;;;;;;25.42;18.75;;;;;;;;;;5046421;28;20412;-64
2023/05/09 08:15:39;;;;;;;24.52;19.60;;;;;;;;;;5046439;28;20083;-64
2023/05/09 08:18:05;;;;;;;23.10;17.42;;;;;;;;;;5045639;28;20098;-64
2023/05/09 08:20:33;;;;;;;23.00;17.85;;;;;;;;;;5044834;28;20037;-66
2023/05/09 08:22:59;;;;;;;17.27;14.88;;;;;;;;;;5027560;28;20136;-65
2023/05/09 08:25:25;;;;;;;18.48;14.27;;;;;;;;;;5026238;28;20056;-65
2023/05/09 08:27:51;;;;;;;18.05;13.25;;;;;;;;;;5026924;28;20047;-64
2023/05/09 08:30:17;;;;;;;21.67;15.98;;;;;;;;;;5045383;28;20423;-65
2023/05/09 08:32:43;;;;;;;26.58;20.92;;;;;;;;;;5046025;28;20269;-64
2023/05/09 08:35:09;;;;;;;26.92;20.25;;;;;;;;;;5045443;28;20037;-64
2023/05/09 08:37:36;;;;;;;20.45;16.80;;;;;;;;;;5027533;28;20491;-64
2023/05/09 08:40:04;;;;;;;20.60;16.02;;;;;;;;;;5031355;28;20041;-64
2023/05/09 08:42:31;;;;;;;24.52;19.38;;;;;;;;;;5027906;28;20053;-64
2023/05/09 08:44:58;;;;;;;30.40;20.88;;;;;;;;;;5044912;28;20387;-63
2023/05/09 08:47:24;;;;;;;26.90;19.50;;;;;;;;;;5022860;28;20136;-64
2023/05/09 08:49:51;;;;;;;27.30;19.30;;;;;;;;;;5024411;28;20125;-64
2023/05/09 08:52:17;;;;;;;23.63;17.80;;;;;;;;;;5025335;28;20049;-64
2023/05/09 08:54:43;;;;;;;17.48;12.95;;;;;;;;;;5025876;28;20082;-64
2023/05/09 08:57:10;;;;;;;17.27;14.48;;;;;;;;;;5025443;28;20399;-64
2023/05/09 08:59:37;;;;;;;17.58;14.65;;;;;;;;;;5024768;28;20049;-64
2023/05/09 09:02:06;;;;;;;20.55;16.08;;;;;;;;;;5023381;28;20128;-64
2023/05/09 09:04:32;;;;;;;20.75;15.95;;;;;;;;;;5021947;28;20064;-64
2023/05/09 09:06:59;;;;;;;22.63;15.82;;;;;;;;;;5024186;28;20688;-64
2023/05/09 09:09:25;;;;;;;22.63;17.23;;;;;;;;;;5024208;28;20041;-64
2023/05/09 09:11:52;;;;;;;20.52;15.68;;;;;;;;;;5025164;28;20512;-64
2023/05/09 09:14:28;;;;;;;28.02;21.15;;;;;;;;;;5025085;28;20041;-64
2023/05/09 09:16:55;;;;;;;26.75;19.15;;;;;;;;;;5023735;28;20042;-64
2023/05/09 09:19:21;;;;;;;25.02;19.55;;;;;;;;;;5023859;28;20045;-64
2023/05/09 09:21:49;;;;;;;29.00;21.73;;;;;;;;;;5023692;28;20499;-64
2023/05/09 09:24:17;;;;;;;26.65;20.27;;;;;;;;;;5025103;28;20580;-64
2023/05/09 09:26:47;;;;;;;27.38;19.83;;;;;;;;;;5023455;28;20102;-64
2023/05/09 09:29:13;;;;;;;27.17;20.95;;;;;;;;;;5023814;28;20405;-64
2023/05/09 09:31:43;;;;;;;24.98;19.55;;;;;;;;;;5023676;28;20049;-64
2023/05/09 09:34:09;;;;;;;24.45;18.10;;;;;;;;;;5022107;28;20053;-64
2023/05/09 09:36:35;;;;;;;27.55;20.98;;;;;;;;;;5018539;28;20303;-64
2023/05/09 09:39:06;;;;;;;25.35;19.27;;;;;;;;;;5019526;28;20045;-64
2023/05/09 09:41:33;;;;;;;26.05;18.90;;;;;;;;;;5022270;28;20049;-64
2023/05/09 09:43:59;;;;;;;23.67;17.05;;;;;;;;;;5024124;28;20437;-64
2023/05/09 09:46:25;;;;;;;24.50;17.80;;;;;;;;;;5024296;28;20475;-65
2023/05/09 09:48:55;;;;;;;24.48;19.45;;;;;;;;;;5043882;28;20048;-64
2023/05/09 09:51:21;;;;;;;33.22;23.80;;;;;;;;;;5044726;28;20049;-64
2023/05/09 09:53:47;;;;;;;27.20;21.52;;;;;;;;;;5026008;28;20491;-64
2023/05/09 09:56:13;;;;;;;27.70;20.52;;;;;;;;;;5045315;28;20055;-64
2023/05/09 09:58:39;;;;;;;30.17;22.83;;;;;;;;;;5044737;28;20045;-64
2023/05/09 10:01:10;;;;;;;24.27;18.77;;;;;;;;;;5028377;28;20083;-64
2023/05/09 10:03:45;;;;;;;24.27;18.98;;;;;;;;;;5038352;28;20691;-64
2023/05/09 10:06:12;;;;;;;23.88;18.90;;;;;;;;;;5040143;28;20041;-64
2023/05/09 10:08:39;;;;;;;25.20;20.13;;;;;;;;;;5018748;28;20052;-64
2023/05/09 10:11:05;;;;;;;24.20;19.33;;;;;;;;;;5040125;28;20417;-65
2023/05/09 10:13:34;;;;;;;25.25;18.45;;;;;;;;;;5040150;28;20642;-64
2023/05/09 10:16:00;;;;;;;20.65;15.93;;;;;;;;;;5015249;28;20049;-64
2023/05/09 10:18:27;;;;;;;21.27;17.55;;;;;;;;;;5042904;28;20041;-65
2023/05/09 10:20:54;;;;;;;23.55;17.98;;;;;;;;;;5039815;28;20040;-65
2023/05/09 10:23:20;;;;;;;23.08;18.67;;;;;;;;;;5021281;28;20064;-65
2023/05/09 10:26:11;;;;;;;24.27;19.20;;;;;;;;;;5017675;28;20163;-65
2023/05/09 10:28:39;;;;;;;25.08;18.58;;;;;;;;;;5017212;28;20052;-65
2023/05/09 10:31:14;;;;;;;19.77;16.10;;;;;;;;;;5018366;28;20061;-65
2023/05/09 10:33:46;;;;;;;24.27;18.15;;;;;;;;;;5033110;28;20704;-65
2023/05/09 10:36:15;;;;;;;23.38;18.23;;;;;;;;;;5035641;28;20056;-63
2023/05/09 10:38:41;;;;;;;20.75;16.88;;;;;;;;;;5029724;28;20033;-65
2023/05/09 10:41:09;;;;;;;18.55;15.18;;;;;;;;;;5014190;28;20053;-66
2023/05/09 10:43:35;;;;;;;16.73;14.85;;;;;;;;;;5008998;28;20136;-66
2023/05/09 10:46:02;;;;;;;18.23;13.88;;;;;;;;;;5023390;28;20091;-66
2023/05/09 10:48:31;;;;;;;19.85;16.10;;;;;;;;;;5006997;28;20133;-65
2023/05/09 10:50:58;;;;;;;16.13;13.85;;;;;;;;;;5025160;28;20046;-65
2023/05/09 10:53:36;;;;;;;15.07;12.07;;;;;;;;;;5023335;28;20071;-65
2023/05/09 10:56:02;;;;;;;17.77;15.00;;;;;;;;;;5006386;28;20133;-65
2023/05/09 10:58:30;;;;;;;16.15;13.45;;;;;;;;;;5022471;28;20131;-66
2023/05/09 11:01:00;;;;;;;16.10;12.35;;;;;;;;;;5045306;28;20118;-65
2023/05/09 11:03:27;;;;;;;16.63;13.70;;;;;;;;;;5025102;28;20128;-66
2023/05/09 11:05:54;;;;;;;12.80;11.48;;;;;;;;;;5025091;28;20067;-66
2023/05/09 11:08:22;;;;;;;11.30;9.32;;;;;;;;;;5043872;28;20476;-66
2023/05/09 11:10:48;;;;;;;8.05;6.93;;;;;;;;;;5026466;28;20053;-65
2023/05/09 11:13:18;;;;;;;8.38;7.53;;;;;;;;;;5046154;28;20044;-66
2023/05/09 11:16:03;;;;;;;8.20;7.40;;;;;;;;;;5047006;28;20084;-65
2023/05/09 11:18:31;;;;;;;12.98;10.43;;;;;;;;;;5027979;28;20120;-66
2023/05/09 11:20:57;;;;;;;11.57;9.98;;;;;;;;;;5045206;28;20080;-66
2023/05/09 11:23:26;;;;;;;11.55;9.20;;;;;;;;;;5027717;28;20138;-65
2023/05/09 11:25:53;;;;;;;8.90;7.68;;;;;;;;;;5027968;28;20234;-66
2023/05/09 11:28:27;;;;;;;9.20;8.30;;;;;;;;;;5045563;28;20659;-66
2023/05/09 11:30:53;;;;;;;10.90;8.98;;;;;;;;;;5028012;28;20049;-66
2023/05/09 11:33:22;;;;;;;11.68;8.75;;;;;;;;;;5046951;28;20252;-66
2023/05/09 11:36:08;;;;;;;8.10;7.28;;;;;;;;;;5029607;28;20804;-66
2023/05/09 11:38:41;;;;;;;6.50;5.90;;;;;;;;;;5047119;28;20045;-66
2023/05/09 11:41:08;;;;;;;7.85;6.88;;;;;;;;;;5046245;28;20171;-66
2023/05/09 11:43:35;;;;;;;6.88;6.20;;;;;;;;;;5046935;28;20104;-66
2023/05/09 11:46:02;;;;;;;9.10;7.63;;;;;;;;;;5046888;28;20041;-66
2023/05/09 11:48:28;;;;;;;8.75;7.95;;;;;;;;;;5046104;28;20063;-66
2023/05/09 11:50:54;;;;;;;9.88;7.80;;;;;;;;;;5028975;28;20373;-65
2023/05/09 11:53:20;;;;;;;7.93;7.13;;;;;;;;;;5029203;28;20052;-65
2023/05/09 11:55:46;;;;;;;11.30;8.60;;;;;;;;;;5028056;28;20082;-66
2023/05/09 11:58:12;;;;;;;8.30;7.47;;;;;;;;;;5046780;28;20506;-66
2023/05/09 12:00:45;;;;;;;7.10;6.40;;;;;;;;;;5046738;28;20483;-65
2023/05/09 12:03:11;;;;;;;7.68;6.88;;;;;;;;;;5046223;28;20064;-66
2023/05/09 12:05:41;;;;;;;7.95;7.05;;;;;;;;;;5046519;28;20507;-66
2023/05/09 12:08:08;;;;;;;8.60;7.60;;;;;;;;;;5046070;28;20579;-66
2023/05/09 12:10:37;;;;;;;11.05;9.48;;;;;;;;;;5045925;28;20060;-66
2023/05/09 12:13:03;;;;;;;8.13;7.40;;;;;;;;;;5046183;28;20052;-66
2023/05/09 12:15:29;;;;;;;8.20;7.40;;;;;;;;;;5027893;28;20056;-66
2023/05/09 12:18:03;;;;;;;6.07;5.47;;;;;;;;;;5046237;28;20051;-66
2023/05/09 12:20:39;;;;;;;6.63;5.97;;;;;;;;;;5028540;28;20238;-66
2023/05/09 12:23:05;;;;;;;8.43;6.88;;;;;;;;;;5045082;28;20355;-66
2023/05/09 12:25:31;;;;;;;7.47;5.53;;;;;;;;;;5045645;28;20052;-66
2023/05/09 12:27:57;;;;;;;8.65;6.70;;;;;;;;;;5045826;28;20048;-66
2023/05/09 12:30:23;;;;;;;8.73;6.78;;;;;;;;;;5027363;28;20395;-66
2023/05/09 12:32:50;;;;;;;5.75;5.20;;;;;;;;;;5046286;28;20052;-66
2023/05/09 12:35:16;;;;;;;7.50;6.32;;;;;;;;;;5028719;28;20535;-66
2023/05/09 12:37:54;;;;;;;6.05;5.53;;;;;;;;;;5045923;28;20059;-66
2023/05/09 12:40:20;;;;;;;9.40;8.43;;;;;;;;;;5046188;28;20037;-66
2023/05/09 12:42:46;;;;;;;6.78;6.18;;;;;;;;;;5045504;28;20502;-67
2023/05/09 12:45:12;;;;;;;5.75;5.22;;;;;;;;;;5045638;28;20041;-66
2023/05/09 12:47:40;;;;;;;5.95;5.35;;;;;;;;;;5027883;28;20053;-66
2023/05/09 12:50:07;;;;;;;4.72;4.32;;;;;;;;;;5045502;28;20426;-66
2023/05/09 12:52:37;;;;;;;5.75;4.90;;;;;;;;;;5027465;28;20234;-66
2023/05/09 12:55:07;;;;;;;5.93;5.43;;;;;;;;;;5045462;28;20052;-66
2023/05/09 12:57:33;;;;;;;6.43;5.82;;;;;;;;;;5045649;28;20041;-66
2023/05/09 13:00:00;;;;;;;4.85;4.45;;;;;;;;;;5026708;28;20060;-66
2023/05/09 13:02:29;;;;;;;5.68;5.18;;;;;;;;;;5045246;28;20131;-66
2023/05/09 13:05:09;;;;;;;5.47;4.97;;;;;;;;;;5044691;28;20051;-66
2023/05/09 13:07:41;;;;;;;4.35;4.05;;;;;;;;;;5045588;28;20116;-66
2023/05/09 13:10:18;;;;;;;4.00;3.67;;;;;;;;;;5045014;28;20045;-66
2023/05/09 13:12:46;;;;;;;4.25;3.85;;;;;;;;;;5045442;28;20080;-66
2023/05/09 13:15:14;;;;;;;6.57;5.97;;;;;;;;;;5045434;28;20052;-66
2023/05/09 13:17:40;;;;;;;8.25;7.10;;;;;;;;;;5045262;28;20052;-66
2023/05/09 13:20:07;;;;;;;6.13;5.63;;;;;;;;;;5044453;28;20052;-66
2023/05/09 13:22:33;;;;;;;7.80;7.05;;;;;;;;;;5027520;28;20091;-66
2023/05/09 13:24:59;;;;;;;9.82;7.78;;;;;;;;;;5045119;28;20579;-66
2023/05/09 13:27:26;;;;;;;7.65;6.95;;;;;;;;;;5044587;28;20125;-66
2023/05/09 13:29:52;;;;;;;5.78;5.30;;;;;;;;;;5044709;28;20644;-66
2023/05/09 13:32:18;;;;;;;9.63;8.73;;;;;;;;;;5045416;28;20032;-66
2023/05/09 13:34:45;;;;;;;14.77;9.98;;;;;;;;;;5045839;28;20049;-64
2023/05/09 13:37:11;;;;;;;10.35;9.45;;;;;;;;;;5026414;28;21510;-64
2023/05/09 13:39:37;;;;;;;13.23;11.82;;;;;;;;;;5044258;28;20037;-64
2023/05/09 13:42:03;;;;;;;11.70;10.50;;;;;;;;;;5029750;28;20057;-64
2023/05/09 13:44:29;;;;;;;10.63;9.50;;;;;;;;;;5047727;28;20040;-66
2023/05/09 13:46:57;;;;;;;11.23;10.07;;;;;;;;;;5051168;28;20154;-66
2023/05/09 13:49:23;;;;;;;16.20;13.07;;;;;;;;;;5032485;28;20053;-66
2023/05/09 13:51:49;;;;;;;13.50;12.10;;;;;;;;;;5044406;28;20384;-66
2023/05/09 13:54:18;;;;;;;13.57;12.27;;;;;;;;;;5026194;28;20057;-66
2023/05/09 13:56:44;;;;;;;13.52;11.75;;;;;;;;;;5027238;28;20499;-66
2023/05/09 13:59:11;;;;;;;14.95;13.25;;;;;;;;;;5026936;28;20044;-66
2023/05/09 14:01:37;;;;;;;16.02;12.10;;;;;;;;;;5044511;28;20151;-66
2023/05/09 14:04:03;;;;;;;12.82;11.07;;;;;;;;;;5026480;28;20640;-66
2023/05/09 14:06:29;;;;;;;15.80;14.13;;;;;;;;;;5026834;28;20045;-66
2023/05/09 14:08:55;;;;;;;13.98;12.57;;;;;;;;;;5044001;28;20052;-66
2023/05/09 14:11:22;;;;;;;10.70;9.60;;;;;;;;;;5044277;28;20045;-66
2023/05/09 14:13:48;;;;;;;11.93;10.77;;;;;;;;;;5026826;28;20387;-66
2023/05/09 14:16:14;;;;;;;13.65;12.25;;;;;;;;;;5046138;28;20036;-66
2023/05/09 14:18:40;;;;;;;13.80;12.50;;;;;;;;;;5044103;28;20037;-66
2023/05/09 14:21:06;;;;;;;11.50;10.30;;;;;;;;;;5043305;28;20442;-65
2023/05/09 14:23:32;;;;;;;9.13;8.27;;;;;;;;;;5025038;28;20144;-66
2023/05/09 14:25:58;;;;;;;10.00;9.15;;;;;;;;;;5042610;28;20170;-66
2023/05/09 14:28:24;;;;;;;12.45;11.25;;;;;;;;;;5025017;28;20055;-66
2023/05/09 14:30:50;;;;;;;10.80;9.85;;;;;;;;;;5024672;28;20045;-66